sensor_id;sensor_type;location;lat;lon;timestamp;temperature;humidity
8988;DHT22;4529;51.360;12.474;2023-08-07T00:04:24;16.40;99.90
8988;DHT22;4529;51.360;12.474;2023-08-07T00:09:28;16.40;99.90
8988;DHT22;4529;51.360;12.474;2023-08-07T00:14:33;16.40;99.90
8988;DHT22;4529;51.360;12.474;2023-08-07T00:19:37;16.40;99.90
8988;DHT22;4529;51.360;12.474;2023-08-07T00:24:41;16.40;99.90
8988;DHT22;4529;51.360;12.474;2023-08-07T00:29:45;16.30;99.90
8988;DHT22;4529;51.360;12.474;2023-08-07T00:34:49;16.30;99.90
8988;DHT22;4529;51.360;12.474;2023-08-07T00:39:53;16.40;99.90
8988;DHT22;4529;51.360;12.474;2023-08-07T00:44:57;16.40;99.90
8988;DHT22;4529;51.360;12.474;2023-08-07T00:50:02;16.40;99.90
8988;DHT22;4529;51.360;12.474;2023-08-07T00:55:06;16.40;99.90
8988;DHT22;4529;51.360;12.474;2023-08-07T01:00:10;16.30;99.90
8988;DHT22;4529;51.360;12.474;2023-08-07T01:05:13;16.30;99.90
8988;DHT22;4529;51.360;12.474;2023-08-07T01:10:16;16.30;99.90
8988;DHT22;4529;51.360;12.474;2023-08-07T01:15:25;16.30;99.90
8988;DHT22;4529;51.360;12.474;2023-08-07T01:20:26;16.40;99.90
8988;DHT22;4529;51.360;12.474;2023-08-07T01:25:29;16.40;99.90
8988;DHT22;4529;51.360;12.474;2023-08-07T01:30:40;16.30;99.90
8988;DHT22;4529;51.360;12.474;2023-08-07T01:35:47;16.30;99.90
8988;DHT22;4529;51.360;12.474;2023-08-07T01:40:49;16.30;99.90
8988;DHT22;4529;51.360;12.474;2023-08-07T01:45:52;16.30;99.90
8988;DHT22;4529;51.360;12.474;2023-08-07T01:51:06;16.30;99.90
8988;DHT22;4529;51.360;12.474;2023-08-07T01:56:10;16.30;99.90
8988;DHT22;4529;51.360;12.474;2023-08-07T02:01:13;16.30;99.90
8988;DHT22;4529;51.360;12.474;2023-08-07T02:06:17;16.30;99.90
8988;DHT22;4529;51.360;12.474;2023-08-07T02:11:20;16.20;99.90
8988;DHT22;4529;51.360;12.474;2023-08-07T02:16:24;16.20;99.90
8988;DHT22;4529;51.360;12.474;2023-08-07T02:21:27;16.30;99.90
8988;DHT22;4529;51.360;12.474;2023-08-07T02:26:31;16.20;99.90
8988;DHT22;4529;51.360;12.474;2023-08-07T02:31:34;16.20;99.90
8988;DHT22;4529;51.360;12.474;2023-08-07T02:36:38;16.20;99.90
8988;DHT22;4529;51.360;12.474;2023-08-07T02:41:41;16.20;99.90
8988;DHT22;4529;51.360;12.474;2023-08-07T02:46:44;16.20;99.90
8988;DHT22;4529;51.360;12.474;2023-08-07T02:51:59;16.10;99.90
8988;DHT22;4529;51.360;12.474;2023-08-07T02:57:02;16.10;99.90
8988;DHT22;4529;51.360;12.474;2023-08-07T03:02:06;16.10;99.90
8988;DHT22;4529;51.360;12.474;2023-08-07T03:07:09;16.10;99.90
8988;DHT22;4529;51.360;12.474;2023-08-07T03:12:13;16.10;99.90
8988;DHT22;4529;51.360;12.474;2023-08-07T03:17:16;16.10;99.90
8988;DHT22;4529;51.360;12.474;2023-08-07T03:22:20;16.00;99.90
8988;DHT22;4529;51.360;12.474;2023-08-07T03:27:23;16.00;99.90
8988;DHT22;4529;51.360;12.474;2023-08-07T03:32:27;16.00;99.90
8988;DHT22;4529;51.360;12.474;2023-08-07T03:37:30;16.00;99.90
8988;DHT22;4529;51.360;12.474;2023-08-07T03:42:33;16.00;99.90
8988;DHT22;4529;51.360;12.474;2023-08-07T03:47:37;16.00;99.90
8988;DHT22;4529;51.360;12.474;2023-08-07T03:52:40;16.00;99.90
8988;DHT22;4529;51.360;12.474;2023-08-07T03:57:44;16.00;99.90
8988;DHT22;4529;51.360;12.474;2023-08-07T04:02:47;16.00;99.90
8988;DHT22;4529;51.360;12.474;2023-08-07T04:07:51;16.00;99.90
8988;DHT22;4529;51.360;12.474;2023-08-07T04:12:54;16.00;99.90
8988;DHT22;4529;51.360;12.474;2023-08-07T04:17:58;16.00;99.90
8988;DHT22;4529;51.360;12.474;2023-08-07T04:23:02;16.00;99.90
8988;DHT22;4529;51.360;12.474;2023-08-07T04:28:06;16.00;99.90
8988;DHT22;4529;51.360;12.474;2023-08-07T04:33:09;16.00;99.90
8988;DHT22;4529;51.360;12.474;2023-08-07T04:38:14;16.00;99.90
8988;DHT22;4529;51.360;12.474;2023-08-07T04:43:18;16.00;99.90
8988;DHT22;4529;51.360;12.474;2023-08-07T04:48:21;16.00;99.90
8988;DHT22;4529;51.360;12.474;2023-08-07T04:53:25;16.00;99.90
8988;DHT22;4529;51.360;12.474;2023-08-07T04:58:29;16.00;99.90
8988;DHT22;4529;51.360;12.474;2023-08-07T05:03:32;16.00;99.90
8988;DHT22;4529;51.360;12.474;2023-08-07T05:08:36;16.00;99.90
8988;DHT22;4529;51.360;12.474;2023-08-07T05:13:40;16.10;99.90
8988;DHT22;4529;51.360;12.474;2023-08-07T05:18:43;16.10;99.90
8988;DHT22;4529;51.360;12.474;2023-08-07T05:23:47;16.10;99.90
8988;DHT22;4529;51.360;12.474;2023-08-07T05:28:50;16.10;99.90
8988;DHT22;4529;51.360;12.474;2023-08-07T05:34:04;16.10;99.90
8988;DHT22;4529;51.360;12.474;2023-08-07T05:39:08;16.10;99.90
8988;DHT22;4529;51.360;12.474;2023-08-07T05:44:12;16.20;99.90
8988;DHT22;4529;51.360;12.474;2023-08-07T05:49:16;16.20;99.90
8988;DHT22;4529;51.360;12.474;2023-08-07T05:54:20;16.20;99.90
8988;DHT22;4529;51.360;12.474;2023-08-07T05:59:24;16.40;99.90
8988;DHT22;4529;51.360;12.474;2023-08-07T06:04:29;16.50;99.90
8988;DHT22;4529;51.360;12.474;2023-08-07T06:09:33;16.50;99.90
8988;DHT22;4529;51.360;12.474;2023-08-07T06:14:37;16.40;99.90
8988;DHT22;4529;51.360;12.474;2023-08-07T06:19:41;16.50;99.90
8988;DHT22;4529;51.360;12.474;2023-08-07T06:24:45;16.50;99.90
8988;DHT22;4529;51.360;12.474;2023-08-07T06:29:49;16.50;99.90
8988;DHT22;4529;51.360;12.474;2023-08-07T06:35:05;16.50;99.90
8988;DHT22;4529;51.360;12.474;2023-08-07T06:40:09;16.50;99.90
8988;DHT22;4529;51.360;12.474;2023-08-07T06:45:12;16.50;99.90
8988;DHT22;4529;51.360;12.474;2023-08-07T06:50:15;16.50;99.90
8988;DHT22;4529;51.360;12.474;2023-08-07T06:55:19;16.60;99.90
8988;DHT22;4529;51.360;12.474;2023-08-07T07:00:22;16.70;99.90
8988;DHT22;4529;51.360;12.474;2023-08-07T07:05:26;17.00;99.90
8988;DHT22;4529;51.360;12.474;2023-08-07T07:10:29;17.10;99.90
8988;DHT22;4529;51.360;12.474;2023-08-07T07:15:33;17.40;99.90
8988;DHT22;4529;51.360;12.474;2023-08-07T07:20:36;17.60;99.90
8988;DHT22;4529;51.360;12.474;2023-08-07T07:25:40;17.80;99.90
8988;DHT22;4529;51.360;12.474;2023-08-07T07:30:44;17.80;99.90
8988;DHT22;4529;51.360;12.474;2023-08-07T07:35:47;17.90;99.90
8988;DHT22;4529;51.360;12.474;2023-08-07T07:40:51;18.20;99.90
8988;DHT22;4529;51.360;12.474;2023-08-07T07:45:55;18.40;99.90
8988;DHT22;4529;51.360;12.474;2023-08-07T07:51:02;18.30;99.90
8988;DHT22;4529;51.360;12.474;2023-08-07T07:56:07;18.40;99.90
8988;DHT22;4529;51.360;12.474;2023-08-07T08:01:10;18.40;99.90
8988;DHT22;4529;51.360;12.474;2023-08-07T08:06:14;18.30;99.90
8988;DHT22;4529;51.360;12.474;2023-08-07T08:11:17;18.30;99.90
8988;DHT22;4529;51.360;12.474;2023-08-07T08:16:21;18.40;99.90
8988;DHT22;4529;51.360;12.474;2023-08-07T08:21:35;18.60;99.90
8988;DHT22;4529;51.360;12.474;2023-08-07T08:26:38;18.60;99.90
8988;DHT22;4529;51.360;12.474;2023-08-07T08:31:42;18.80;99.90
8988;DHT22;4529;51.360;12.474;2023-08-07T08:36:45;18.60;99.90
8988;DHT22;4529;51.360;12.474;2023-08-07T08:41:49;18.50;99.90
8988;DHT22;4529;51.360;12.474;2023-08-07T08:46:53;18.30;99.90
8988;DHT22;4529;51.360;12.474;2023-08-07T08:51:58;18.30;99.90
8988;DHT22;4529;51.360;12.474;2023-08-07T08:57:02;18.90;99.90
8988;DHT22;4529;51.360;12.474;2023-08-07T09:02:06;19.10;99.90
8988;DHT22;4529;51.360;12.474;2023-08-07T09:07:09;19.10;99.90
8988;DHT22;4529;51.360;12.474;2023-08-07T09:12:16;18.60;99.90
8988;DHT22;4529;51.360;12.474;2023-08-07T09:17:18;18.10;99.90
8988;DHT22;4529;51.360;12.474;2023-08-07T09:22:22;18.00;99.90
8988;DHT22;4529;51.360;12.474;2023-08-07T09:27:26;18.10;99.90
8988;DHT22;4529;51.360;12.474;2023-08-07T09:32:30;18.20;99.90
8988;DHT22;4529;51.360;12.474;2023-08-07T09:37:35;18.10;99.90
8988;DHT22;4529;51.360;12.474;2023-08-07T09:42:38;18.10;99.90
8988;DHT22;4529;51.360;12.474;2023-08-07T09:47:41;18.10;99.90
8988;DHT22;4529;51.360;12.474;2023-08-07T09:52:51;18.40;99.90
8988;DHT22;4529;51.360;12.474;2023-08-07T09:57:55;18.50;99.90
8988;DHT22;4529;51.360;12.474;2023-08-07T10:02:59;18.50;99.90
8988;DHT22;4529;51.360;12.474;2023-08-07T10:08:03;18.40;99.90
8988;DHT22;4529;51.360;12.474;2023-08-07T10:13:07;18.40;99.90
8988;DHT22;4529;51.360;12.474;2023-08-07T10:18:10;18.10;99.90
8988;DHT22;4529;51.360;12.474;2023-08-07T10:23:14;17.80;99.90
8988;DHT22;4529;51.360;12.474;2023-08-07T10:28:18;17.70;99.90
8988;DHT22;4529;51.360;12.474;2023-08-07T10:33:21;17.70;99.90
8988;DHT22;4529;51.360;12.474;2023-08-07T10:38:24;17.70;99.90
8988;DHT22;4529;51.360;12.474;2023-08-07T10:43:28;17.80;99.90
8988;DHT22;4529;51.360;12.474;2023-08-07T10:48:37;18.00;99.90
8988;DHT22;4529;51.360;12.474;2023-08-07T10:53:40;18.30;99.90
8988;DHT22;4529;51.360;12.474;2023-08-07T10:58:42;18.40;99.90
8988;DHT22;4529;51.360;12.474;2023-08-07T11:03:48;18.40;99.90
8988;DHT22;4529;51.360;12.474;2023-08-07T11:08:51;18.40;99.90
8988;DHT22;4529;51.360;12.474;2023-08-07T11:13:54;18.40;99.90
8988;DHT22;4529;51.360;12.474;2023-08-07T11:18:59;18.20;99.90
8988;DHT22;4529;51.360;12.474;2023-08-07T11:24:03;18.00;99.90
8988;DHT22;4529;51.360;12.474;2023-08-07T11:29:07;18.30;99.90
8988;DHT22;4529;51.360;12.474;2023-08-07T11:34:11;18.70;99.90
8988;DHT22;4529;51.360;12.474;2023-08-07T11:39:15;19.00;99.90
8988;DHT22;4529;51.360;12.474;2023-08-07T11:44:19;19.40;99.90
8988;DHT22;4529;51.360;12.474;2023-08-07T11:49:23;19.70;99.90
8988;DHT22;4529;51.360;12.474;2023-08-07T11:54:27;19.50;99.90
8988;DHT22;4529;51.360;12.474;2023-08-07T11:59:32;19.80;99.90
8988;DHT22;4529;51.360;12.474;2023-08-07T12:04:36;19.80;99.90
8988;DHT22;4529;51.360;12.474;2023-08-07T12:09:51;19.60;99.90
8988;DHT22;4529;51.360;12.474;2023-08-07T12:14:54;19.60;99.90
8988;DHT22;4529;51.360;12.474;2023-08-07T12:19:58;19.40;99.90
8988;DHT22;4529;51.360;12.474;2023-08-07T12:25:01;19.10;99.90
8988;DHT22;4529;51.360;12.474;2023-08-07T12:30:05;18.80;99.90
8988;DHT22;4529;51.360;12.474;2023-08-07T12:35:08;18.70;99.90
8988;DHT22;4529;51.360;12.474;2023-08-07T12:40:12;18.70;99.90
8988;DHT22;4529;51.360;12.474;2023-08-07T12:45:16;18.30;99.90
8988;DHT22;4529;51.360;12.474;2023-08-07T12:50:21;17.90;99.90
8988;DHT22;4529;51.360;12.474;2023-08-07T12:55:25;17.80;99.90
8988;DHT22;4529;51.360;12.474;2023-08-07T13:00:39;17.50;99.90
8988;DHT22;4529;51.360;12.474;2023-08-07T13:05:43;17.40;99.90
8988;DHT22;4529;51.360;12.474;2023-08-07T13:10:48;17.40;99.90
8988;DHT22;4529;51.360;12.474;2023-08-07T13:15:52;17.50;99.90
8988;DHT22;4529;51.360;12.474;2023-08-07T13:20:56;17.50;99.90
8988;DHT22;4529;51.360;12.474;2023-08-07T13:26:00;17.40;99.90
8988;DHT22;4529;51.360;12.474;2023-08-07T13:31:04;17.50;99.90
8988;DHT22;4529;51.360;12.474;2023-08-07T13:36:08;17.50;99.90
8988;DHT22;4529;51.360;12.474;2023-08-07T13:41:11;17.40;99.90
8988;DHT22;4529;51.360;12.474;2023-08-07T13:46:15;17.10;99.90
8988;DHT22;4529;51.360;12.474;2023-08-07T13:51:18;16.90;99.90
8988;DHT22;4529;51.360;12.474;2023-08-07T13:56:22;17.00;99.90
8988;DHT22;4529;51.360;12.474;2023-08-07T14:01:25;17.00;99.90
8988;DHT22;4529;51.360;12.474;2023-08-07T14:06:29;17.00;99.90
8988;DHT22;4529;51.360;12.474;2023-08-07T14:11:32;17.00;99.90
8988;DHT22;4529;51.360;12.474;2023-08-07T14:16:36;17.30;99.90
8988;DHT22;4529;51.360;12.474;2023-08-07T14:21:39;17.50;99.90
8988;DHT22;4529;51.360;12.474;2023-08-07T14:26:43;17.60;99.90
8988;DHT22;4529;51.360;12.474;2023-08-07T14:31:46;17.50;99.90
8988;DHT22;4529;51.360;12.474;2023-08-07T14:36:49;17.00;99.90
8988;DHT22;4529;51.360;12.474;2023-08-07T14:41:53;16.70;99.90
8988;DHT22;4529;51.360;12.474;2023-08-07T14:46:56;16.60;99.90
8988;DHT22;4529;51.360;12.474;2023-08-07T14:52:00;16.50;99.90
8988;DHT22;4529;51.360;12.474;2023-08-07T14:57:05;16.70;99.90
8988;DHT22;4529;51.360;12.474;2023-08-07T15:02:09;16.70;99.90
8988;DHT22;4529;51.360;12.474;2023-08-07T15:07:12;17.00;99.90
8988;DHT22;4529;51.360;12.474;2023-08-07T15:12:16;17.00;99.90
8988;DHT22;4529;51.360;12.474;2023-08-07T15:17:19;17.10;99.90
8988;DHT22;4529;51.360;12.474;2023-08-07T15:22:23;17.40;99.90
8988;DHT22;4529;51.360;12.474;2023-08-07T15:27:26;17.50;99.90
8988;DHT22;4529;51.360;12.474;2023-08-07T15:32:29;17.60;99.90
8988;DHT22;4529;51.360;12.474;2023-08-07T15:37:33;17.60;99.90
8988;DHT22;4529;51.360;12.474;2023-08-07T15:42:36;17.60;99.90
8988;DHT22;4529;51.360;12.474;2023-08-07T15:47:51;17.40;99.90
8988;DHT22;4529;51.360;12.474;2023-08-07T15:52:54;17.30;99.90
8988;DHT22;4529;51.360;12.474;2023-08-07T15:57:57;17.30;99.90
8988;DHT22;4529;51.360;12.474;2023-08-07T16:03:04;17.20;99.90
8988;DHT22;4529;51.360;12.474;2023-08-07T16:08:08;17.20;99.90
8988;DHT22;4529;51.360;12.474;2023-08-07T16:13:12;17.20;99.90
8988;DHT22;4529;51.360;12.474;2023-08-07T16:18:16;17.20;99.90
8988;DHT22;4529;51.360;12.474;2023-08-07T16:23:19;17.20;99.90
8988;DHT22;4529;51.360;12.474;2023-08-07T16:28:23;17.20;99.90
8988;DHT22;4529;51.360;12.474;2023-08-07T16:33:26;17.10;99.90
8988;DHT22;4529;51.360;12.474;2023-08-07T16:38:30;17.10;99.90
8988;DHT22;4529;51.360;12.474;2023-08-07T16:43:43;17.00;99.90
8988;DHT22;4529;51.360;12.474;2023-08-07T16:48:48;16.90;99.90
8988;DHT22;4529;51.360;12.474;2023-08-07T16:53:52;16.90;99.90
8988;DHT22;4529;51.360;12.474;2023-08-07T16:58:55;16.90;99.90
8988;DHT22;4529;51.360;12.474;2023-08-07T17:03:59;17.10;99.90
8988;DHT22;4529;51.360;12.474;2023-08-07T17:09:02;17.20;99.90
8988;DHT22;4529;51.360;12.474;2023-08-07T17:14:06;17.10;99.90
8988;DHT22;4529;51.360;12.474;2023-08-07T17:19:10;17.10;99.90
8988;DHT22;4529;51.360;12.474;2023-08-07T17:24:14;17.20;99.90
8988;DHT22;4529;51.360;12.474;2023-08-07T17:29:19;17.10;99.90
8988;DHT22;4529;51.360;12.474;2023-08-07T17:34:23;17.10;99.90
8988;DHT22;4529;51.360;12.474;2023-08-07T17:39:27;17.20;99.90
8988;DHT22;4529;51.360;12.474;2023-08-07T17:44:31;17.10;99.90
8988;DHT22;4529;51.360;12.474;2023-08-07T17:49:35;17.00;99.90
8988;DHT22;4529;51.360;12.474;2023-08-07T17:54:39;17.00;99.90
8988;DHT22;4529;51.360;12.474;2023-08-07T17:59:43;17.00;99.90
8988;DHT22;4529;51.360;12.474;2023-08-07T18:04:47;17.00;99.90
8988;DHT22;4529;51.360;12.474;2023-08-07T18:09:52;17.00;99.90
8988;DHT22;4529;51.360;12.474;2023-08-07T18:14:56;17.10;99.90
8988;DHT22;4529;51.360;12.474;2023-08-07T18:20:00;17.00;99.90
8988;DHT22;4529;51.360;12.474;2023-08-07T18:25:04;17.10;99.90
8988;DHT22;4529;51.360;12.474;2023-08-07T18:30:07;17.00;99.90
8988;DHT22;4529;51.360;12.474;2023-08-07T18:35:22;17.00;99.90
8988;DHT22;4529;51.360;12.474;2023-08-07T18:40:25;17.00;99.90
8988;DHT22;4529;51.360;12.474;2023-08-07T18:45:29;16.90;99.90
8988;DHT22;4529;51.360;12.474;2023-08-07T18:50:33;16.90;99.90
8988;DHT22;4529;51.360;12.474;2023-08-07T18:55:37;16.90;99.90
8988;DHT22;4529;51.360;12.474;2023-08-07T19:00:41;16.90;99.90
8988;DHT22;4529;51.360;12.474;2023-08-07T19:05:45;16.90;99.90
8988;DHT22;4529;51.360;12.474;2023-08-07T19:10:49;16.90;99.90
8988;DHT22;4529;51.360;12.474;2023-08-07T19:15:54;17.00;99.90
8988;DHT22;4529;51.360;12.474;2023-08-07T19:20:58;17.00;99.90
8988;DHT22;4529;51.360;12.474;2023-08-07T19:26:02;17.00;99.90
8988;DHT22;4529;51.360;12.474;2023-08-07T19:31:06;16.90;99.90
8988;DHT22;4529;51.360;12.474;2023-08-07T19:36:10;16.90;99.90
8988;DHT22;4529;51.360;12.474;2023-08-07T19:41:14;16.90;99.90
8988;DHT22;4529;51.360;12.474;2023-08-07T19:46:18;16.90;99.90
8988;DHT22;4529;51.360;12.474;2023-08-07T19:51:22;16.90;99.90
8988;DHT22;4529;51.360;12.474;2023-08-07T19:56:26;16.90;99.90
8988;DHT22;4529;51.360;12.474;2023-08-07T20:01:31;16.90;99.90
8988;DHT22;4529;51.360;12.474;2023-08-07T20:06:35;16.90;99.90
8988;DHT22;4529;51.360;12.474;2023-08-07T20:11:39;16.90;99.90
8988;DHT22;4529;51.360;12.474;2023-08-07T20:16:43;16.80;99.90
8988;DHT22;4529;51.360;12.474;2023-08-07T20:21:52;16.80;99.90
8988;DHT22;4529;51.360;12.474;2023-08-07T20:26:56;16.80;99.90
8988;DHT22;4529;51.360;12.474;2023-08-07T20:31:59;16.80;99.90
8988;DHT22;4529;51.360;12.474;2023-08-07T20:37:03;16.70;99.90
8988;DHT22;4529;51.360;12.474;2023-08-07T20:42:07;16.50;99.90
8988;DHT22;4529;51.360;12.474;2023-08-07T20:47:10;16.40;99.90
8988;DHT22;4529;51.360;12.474;2023-08-07T20:52:14;16.50;99.90
8988;DHT22;4529;51.360;12.474;2023-08-07T20:57:17;16.40;99.90
8988;DHT22;4529;51.360;12.474;2023-08-07T21:02:21;16.30;99.90
8988;DHT22;4529;51.360;12.474;2023-08-07T21:07:24;16.20;99.90
8988;DHT22;4529;51.360;12.474;2023-08-07T21:12:28;16.20;99.90
8988;DHT22;4529;51.360;12.474;2023-08-07T21:17:31;16.10;99.90
8988;DHT22;4529;51.360;12.474;2023-08-07T21:22:36;16.00;99.90
8988;DHT22;4529;51.360;12.474;2023-08-07T21:27:51;15.90;99.90
8988;DHT22;4529;51.360;12.474;2023-08-07T21:32:54;15.90;99.90
8988;DHT22;4529;51.360;12.474;2023-08-07T21:37:58;15.90;99.90
8988;DHT22;4529;51.360;12.474;2023-08-07T21:43:01;15.80;99.90
8988;DHT22;4529;51.360;12.474;2023-08-07T21:48:05;15.70;99.90
8988;DHT22;4529;51.360;12.474;2023-08-07T21:53:09;15.70;99.90
8988;DHT22;4529;51.360;12.474;2023-08-07T21:58:13;15.70;99.90
8988;DHT22;4529;51.360;12.474;2023-08-07T22:03:17;15.60;99.90
8988;DHT22;4529;51.360;12.474;2023-08-07T22:08:21;15.60;99.90
8988;DHT22;4529;51.360;12.474;2023-08-07T22:13:25;15.60;99.90
8988;DHT22;4529;51.360;12.474;2023-08-07T22:18:28;15.60;99.90
8988;DHT22;4529;51.360;12.474;2023-08-07T22:23:32;15.50;99.90
8988;DHT22;4529;51.360;12.474;2023-08-07T22:28:35;15.50;99.90
8988;DHT22;4529;51.360;12.474;2023-08-07T22:33:38;15.40;99.90
8988;DHT22;4529;51.360;12.474;2023-08-07T22:38:42;15.40;99.90
8988;DHT22;4529;51.360;12.474;2023-08-07T22:43:45;15.30;99.90
8988;DHT22;4529;51.360;12.474;2023-08-07T22:48:49;15.30;99.90
8988;DHT22;4529;51.360;12.474;2023-08-07T22:53:52;15.30;99.90
8988;DHT22;4529;51.360;12.474;2023-08-07T22:58:56;15.20;99.90
8988;DHT22;4529;51.360;12.474;2023-08-07T23:03:59;15.20;99.90
8988;DHT22;4529;51.360;12.474;2023-08-07T23:09:03;15.20;99.90
8988;DHT22;4529;51.360;12.474;2023-08-07T23:14:06;15.10;99.90
8988;DHT22;4529;51.360;12.474;2023-08-07T23:19:10;15.00;99.90
8988;DHT22;4529;51.360;12.474;2023-08-07T23:24:13;14.90;99.90
8988;DHT22;4529;51.360;12.474;2023-08-07T23:29:16;14.80;99.90
8988;DHT22;4529;51.360;12.474;2023-08-07T23:34:21;14.80;99.90
8988;DHT22;4529;51.360;12.474;2023-08-07T23:39:25;14.80;99.90
8988;DHT22;4529;51.360;12.474;2023-08-07T23:44:29;14.90;99.90
8988;DHT22;4529;51.360;12.474;2023-08-07T23:49:33;14.80;99.90
8988;DHT22;4529;51.360;12.474;2023-08-07T23:54:37;14.80;99.90
8988;DHT22;4529;51.360;12.474;2023-08-07T23:59:41;14.80;99.90
